Silver Spring, PA (17575)

10:39 AM EDT on May 30, 2015 (GMT -0400)
Landisville | | Change Station
CLOSE
Current Station
Personal Weather Station
Location: Pennsylvania, PA
Elevation: 456 ft
Nearby Weather Stations

Elev 456 ft 40.08 °N, 76.41 °W | Updated 9 seconds ago

Clear
Clear
78.6 °F
Feels Like 81 °F
N
0.0
Wind Variable Wind from North
Gusts 0.0 mph

Today
High -- | Low -- °F
--% Chance of Precip.
Yesterday
High -- | Low -- °F
Precip. -- in
5:39 AM 8:27 PM
Waxing Gibbous, 90% visible
Pressure 30.17 in
Visibility 10.0 miles
Clouds Few 1900 ft
Heat Index 81 °F
Dew Point 66 °F
Humidity 66%
Rainfall 0.00 in
Snow Depth Not available.
UV 1.0 out of 12
Pollen 8.20 out of 12
Air Quality Not available.
Flu Activity Sporadic
METAR KLNS 301353Z VRB04KT 10SM FEW019 25/19 A3018 RMK AO2 SLP216 T02500189

More Conditions Fewer Conditions

Pressure 30.17 in
Visibility 10.0 miles
Clouds Few 1900 ft
Heat Index 81 °F
Dew Point 66 °F
Humidity 66%
Rainfall 0.00 in
Snow Depth Not available.
UV 1.0 out of 12
Pollen 8.20 out of 12
Air Quality Not available.
Flu Activity Sporadic
METAR KLNS 301353Z VRB04KT 10SM FEW019 25/19 A3018 RMK AO2 SLP216 T02500189

More Conditions Fewer Conditions

10-Day Weather Forecast

Almanac

Astronomy

May. 30, 2015 Rise Set
Actual Time
Civil Twilight
Nautical Twilight
Astronomical Twilight
Moon
Length of Visible Light
Length of Day
Tomorrow will be .
, % of the Moon is Illuminated

Today's Extremes

State Highs State Lows

Community

WunderPhotos

Upload Photos

1,825,523 photos uploaded!

WunderBlogs® & News

Nearby

Air Quality

  Air Quality AQ Index Pollutant
Not available.

Snow Depth

Station Depth Elevation

Earthquake Activity

City Distance Mag. Time & Date
Minimum magnitude displayed is 2.5.

Coastal Water Temperatures

Place Temperature

Stations

Nearby Weather Stations

Station Location Temp. Windchill Dew Point Humidity Wind Precip. Elev Updated Type